Time;durP1;ratioP1;P1;durP2;ratioP2;P2;SDS_P1;SDS_P2;PMS_P1;PMS_P2;Temp;Humidity;BMP_temperature;BMP_pressure;BME280_temperature;BME280_humidity;BME280_pressure;Samples;Min_cycle;Max_cycle;Signal;HPM_P1;HPM_P2
2023/03/25 00:01:12;;;;;;;15.23;2.30;;;10.10;99.90;;;;;;4997254;28;20407;-71
2023/03/25 00:03:45;;;;;;;13.20;2.22;;;10.10;99.90;;;;;;4993213;28;20058;-70
2023/03/25 00:06:12;;;;;;;14.05;2.10;;;10.00;99.90;;;;;;4980353;28;20037;-70
2023/03/25 00:08:38;;;;;;;12.18;2.58;;;10.10;99.90;;;;;;5016630;28;20077;-71
2023/03/25 00:11:05;;;;;;;11.73;1.73;;;10.10;99.90;;;;;;4998992;28;20097;-71
2023/03/25 00:13:31;;;;;;;11.27;1.95;;;10.10;99.90;;;;;;4991722;28;20602;-71
2023/03/25 00:15:58;;;;;;;12.38;2.38;;;10.10;99.90;;;;;;4990200;28;20441;-71
2023/03/25 00:18:32;;;;;;;11.82;2.05;;;10.10;99.90;;;;;;4991499;28;20064;-71
2023/03/25 00:21:00;;;;;;;10.57;2.30;;;10.10;99.90;;;;;;4976554;28;20781;-71
2023/03/25 00:23:26;;;;;;;16.23;4.05;;;10.10;99.90;;;;;;4978808;28;20061;-71
2023/03/25 00:25:55;;;;;;;12.95;1.63;;;10.10;99.90;;;;;;4989145;28;20041;-71
2023/03/25 00:28:20;;;;;;;12.45;2.45;;;10.00;99.90;;;;;;4987349;28;20116;-72
2023/03/25 00:30:46;;;;;;;12.03;2.17;;;10.00;99.90;;;;;;4995097;28;20045;-71
2023/03/25 00:33:12;;;;;;;12.77;2.07;;;10.00;99.90;;;;;;5009720;28;20040;-71
2023/03/25 00:35:43;;;;;;;11.65;2.25;;;10.00;99.90;;;;;;4987151;28;20096;-71
2023/03/25 00:38:12;;;;;;;12.18;2.05;;;9.90;99.90;;;;;;5008180;28;20136;-71
2023/03/25 00:40:38;;;;;;;10.38;2.03;;;9.90;99.90;;;;;;4987533;28;20059;-71
2023/03/25 00:43:05;;;;;;;9.93;1.98;;;9.90;99.90;;;;;;4994470;28;20041;-71
2023/03/25 00:45:33;;;;;;;;;;;9.80;99.90;;;;;;4991470;28;20523;-71
2023/03/25 00:47:59;;;;;;;12.45;1.70;;;9.70;99.90;;;;;;5013280;28;20428;-70
2023/03/25 00:50:25;;;;;;;17.47;2.60;;;9.60;99.90;;;;;;5012349;28;20033;-71
2023/03/25 00:52:52;;;;;;;14.32;2.42;;;9.60;99.90;;;;;;5012994;28;20507;-71
2023/03/25 00:55:18;;;;;;;20.65;2.63;;;9.60;99.90;;;;;;4990896;28;20049;-71
2023/03/25 00:57:44;;;;;;;10.63;2.25;;;9.60;99.90;;;;;;4984017;28;20065;-71
2023/03/25 01:00:14;;;;;;;9.93;1.95;;;9.60;99.90;;;;;;5005633;28;20181;-71
2023/03/25 01:02:44;;;;;;;16.85;2.60;;;9.60;99.90;;;;;;4997793;28;20049;-71
2023/03/25 01:05:10;;;;;;;12.18;2.15;;;9.50;99.90;;;;;;4984185;28;20427;-71
2023/03/25 01:07:41;;;;;;;14.90;2.35;;;9.60;99.90;;;;;;4996183;28;20049;-70
2023/03/25 01:10:07;;;;;;;10.38;2.78;;;9.50;99.90;;;;;;4997770;28;20057;-70
2023/03/25 01:12:32;;;;;;;14.93;2.20;;;9.60;99.90;;;;;;5002061;28;20499;-71
2023/03/25 01:14:58;;;;;;;17.90;3.43;;;9.50;99.90;;;;;;4990779;28;20088;-71
2023/03/25 01:17:24;;;;;;;15.90;2.70;;;9.60;99.90;;;;;;5079052;22;20247;-69
2023/03/25 01:19:50;;;;;;;10.63;2.20;;;9.60;99.90;;;;;;5002714;28;20548;-69
2023/03/25 01:22:15;;;;;;;15.10;2.43;;;9.50;99.90;;;;;;5015106;28;20108;-70
2023/03/25 01:24:41;;;;;;;15.07;2.83;;;9.50;99.90;;;;;;5015408;28;20231;-70
2023/03/25 01:27:07;;;;;;;15.70;2.30;;;9.50;99.90;;;;;;4984329;28;20112;-70
2023/03/25 01:29:32;;;;;;;23.47;3.20;;;9.50;99.90;;;;;;4999833;28;20216;-71
2023/03/25 01:31:58;;;;;;;10.40;3.03;;;9.50;99.90;;;;;;5000658;28;20897;-69
2023/03/25 01:34:24;;;;;;;13.80;2.22;;;9.50;99.90;;;;;;4980691;28;20543;-70
2023/03/25 01:36:50;;;;;;;18.58;2.63;;;9.50;99.90;;;;;;5000850;28;20103;-71
2023/03/25 01:39:17;;;;;;;16.00;2.85;;;9.50;99.90;;;;;;5009302;28;20050;-70
2023/03/25 01:41:45;;;;;;;19.35;3.13;;;9.50;99.90;;;;;;5005053;28;20037;-70
2023/03/25 01:44:23;;;;;;;10.85;2.28;;;9.50;99.90;;;;;;5001261;28;20475;-70
2023/03/25 01:46:51;;;;;;;11.70;2.60;;;9.50;99.90;;;;;;5019363;28;20124;-70
2023/03/25 01:49:43;;;;;;;15.80;2.70;;;9.50;99.90;;;;;;5001227;28;20447;-70
2023/03/25 01:52:13;;;;;;;13.13;2.20;;;9.40;99.90;;;;;;5007927;28;20098;-70
2023/03/25 01:54:42;;;;;;;16.08;3.13;;;9.40;99.90;;;;;;5015048;28;20456;-70
2023/03/25 01:57:11;;;;;;;15.00;3.00;;;9.40;99.90;;;;;;5014262;28;20044;-69
2023/03/25 01:59:38;;;;;;;19.80;2.85;;;9.40;99.90;;;;;;4999504;28;20180;-71
2023/03/25 02:02:07;;;;;;;9.93;2.63;;;9.60;99.90;;;;;;5002253;28;20046;-69
2023/03/25 02:04:39;;;;;;;9.00;2.25;;;9.40;99.90;;;;;;5001987;28;20072;-70
2023/03/25 02:07:07;;;;;;;19.17;2.80;;;9.50;99.90;;;;;;4995862;28;20057;-70
2023/03/25 02:09:33;;;;;;;16.60;2.88;;;9.50;99.90;;;;;;5002670;28;20049;-69
2023/03/25 02:11:59;;;;;;;14.70;2.63;;;9.50;99.90;;;;;;5006483;28;20569;-70
2023/03/25 02:14:30;;;;;;;11.93;3.30;;;9.50;99.90;;;;;;5004267;28;20045;-70
2023/03/25 02:17:32;;;;;;;16.17;3.30;;;9.50;99.90;;;;;;5016086;28;20103;-70
2023/03/25 02:20:18;;;;;;;16.63;3.00;;;9.50;99.90;;;;;;4981489;28;20244;-69
2023/03/25 02:22:49;;;;;;;17.13;2.70;;;9.40;99.90;;;;;;5003447;28;20327;-70
2023/03/25 02:25:34;;;;;;;16.05;2.72;;;9.50;99.90;;;;;;5003305;28;20041;-69
2023/03/25 02:28:24;;;;;;;13.23;2.75;;;9.50;99.90;;;;;;5004631;28;20041;-70
2023/03/25 02:30:59;;;;;;;13.05;2.58;;;9.50;99.90;;;;;;5000502;28;20439;-70
2023/03/25 02:33:42;;;;;;;16.98;3.25;;;9.50;99.90;;;;;;5002063;28;20053;-70
2023/03/25 02:36:11;;;;;;;13.90;2.45;;;9.50;99.90;;;;;;5012015;28;20403;-69
2023/03/25 02:38:45;;;;;;;21.88;3.10;;;9.50;99.90;;;;;;4978553;28;20045;-70
2023/03/25 02:41:20;;;;;;;16.88;2.50;;;9.50;99.90;;;;;;4996709;28;20041;-69
2023/03/25 02:44:10;;;;;;;17.27;3.22;;;9.40;99.90;;;;;;5011753;28;20444;-70
2023/03/25 02:46:40;;;;;;;26.35;3.13;;;9.40;99.90;;;;;;5015988;28;20046;-70
2023/03/25 02:49:14;;;;;;;14.40;2.55;;;9.40;99.90;;;;;;5021986;28;20511;-69
2023/03/25 02:51:45;;;;;;;22.45;2.90;;;9.40;99.90;;;;;;5003930;28;20320;-71
2023/03/25 02:54:14;;;;;;;16.45;2.47;;;9.40;99.90;;;;;;4996670;28;20360;-70
2023/03/25 02:56:43;;;;;;;10.50;2.42;;;9.40;99.90;;;;;;5003596;28;20099;-70
2023/03/25 02:59:13;;;;;;;19.52;2.85;;;9.40;99.90;;;;;;5020901;28;20034;-68
2023/03/25 03:01:40;;;;;;;15.95;2.80;;;9.40;99.90;;;;;;5011888;28;20041;-70
2023/03/25 03:04:06;;;;;;;17.08;4.03;;;9.50;99.90;;;;;;5015623;28;20061;-70
2023/03/25 03:06:38;;;;;;;10.02;2.22;;;9.50;99.90;;;;;;4983662;28;20042;-70
2023/03/25 03:09:21;;;;;;;10.77;2.05;;;9.50;99.90;;;;;;4996370;28;20050;-69
2023/03/25 03:11:56;;;;;;;12.93;2.58;;;9.50;99.90;;;;;;5020589;28;20060;-70
2023/03/25 03:14:46;;;;;;;23.35;2.97;;;9.50;99.90;;;;;;5000111;28;20037;-70
2023/03/25 03:17:20;;;;;;;11.95;2.47;;;9.50;99.90;;;;;;4998387;28;20403;-70
2023/03/25 03:20:04;;;;;;;17.75;2.40;;;9.50;99.90;;;;;;5004196;28;20041;-69
2023/03/25 03:22:45;;;;;;;11.23;2.60;;;9.50;99.90;;;;;;4999912;28;20116;-70
2023/03/25 03:25:29;;;;;;;14.77;2.50;;;9.50;99.90;;;;;;5011973;28;20044;-69
2023/03/25 03:28:13;;;;;;;17.70;2.92;;;9.50;99.90;;;;;;4997082;28;20053;-69
2023/03/25 03:30:45;;;;;;;23.25;2.70;;;9.50;99.90;;;;;;4998790;28;20168;-69
2023/03/25 03:33:20;;;;;;;25.83;2.63;;;9.50;99.90;;;;;;5017292;28;20111;-70
2023/03/25 03:35:56;;;;;;;15.80;3.05;;;9.50;99.90;;;;;;5012399;28;20042;-70
2023/03/25 03:38:25;;;;;;;20.75;3.00;;;9.40;99.90;;;;;;5003768;28;20093;-70
2023/03/25 03:40:56;;;;;;;19.88;2.95;;;9.40;99.90;;;;;;4997045;28;20046;-70
2023/03/25 03:43:43;;;;;;;18.60;2.70;;;9.50;99.90;;;;;;5003423;28;20060;-68
2023/03/25 03:46:18;;;;;;;19.83;2.07;;;9.40;99.90;;;;;;5002781;28;20045;-68
2023/03/25 03:48:47;;;;;;;11.95;2.40;;;9.40;99.90;;;;;;5002286;28;20124;-69
2023/03/25 03:51:23;;;;;;;17.90;2.30;;;9.40;99.90;;;;;;5007727;28;20045;-70
2023/03/25 03:54:26;;;;;;;14.55;2.40;;;9.40;99.90;;;;;;4997971;28;20049;-70
2023/03/25 03:56:53;;;;;;;19.30;3.22;;;9.40;99.90;;;;;;4952142;28;20061;-70
2023/03/25 03:59:29;;;;;;;9.20;2.10;;;9.50;99.90;;;;;;5020067;28;20514;-70
2023/03/25 04:02:00;;;;;;;14.55;2.65;;;9.40;99.90;;;;;;4998174;28;20207;-70
2023/03/25 04:04:26;;;;;;;11.73;2.20;;;9.40;99.90;;;;;;5005811;28;20109;-69
2023/03/25 04:07:03;;;;;;;15.18;2.47;;;9.50;99.90;;;;;;4997886;28;20042;-70
2023/03/25 04:09:54;;;;;;;12.07;2.67;;;9.50;99.90;;;;;;5013916;28;20060;-70
2023/03/25 04:12:44;;;;;;;17.58;2.10;;;9.40;99.90;;;;;;4993801;28;20053;-70
2023/03/25 04:15:10;;;;;;;19.38;3.28;;;9.50;99.90;;;;;;5005517;28;20065;-69
2023/03/25 04:17:36;;;;;;;13.82;3.22;;;9.50;99.90;;;;;;5017489;28;20034;-69
2023/03/25 04:20:07;;;;;;;15.43;3.67;;;9.40;99.90;;;;;;4996735;28;20083;-70
2023/03/25 04:22:36;;;;;;;13.32;3.40;;;9.50;99.90;;;;;;4999541;28;20037;-70
2023/03/25 04:25:04;;;;;;;12.77;2.08;;;9.50;99.90;;;;;;4997811;28;20091;-70
2023/03/25 04:27:31;;;;;;;19.38;3.67;;;9.50;99.90;;;;;;5010873;28;20038;-70
2023/03/25 04:29:57;;;;;;;15.80;3.03;;;9.50;99.90;;;;;;4987368;28;20052;-69
2023/03/25 04:32:26;;;;;;;14.45;2.75;;;9.50;99.90;;;;;;5003835;28;20040;-70
2023/03/25 04:34:56;;;;;;;14.70;2.90;;;9.50;99.90;;;;;;5015717;28;20061;-69
2023/03/25 04:37:26;;;;;;;21.38;2.70;;;9.50;99.90;;;;;;5015099;28;20050;-69
2023/03/25 04:39:54;;;;;;;20.88;2.78;;;9.50;99.90;;;;;;5002202;28;20041;-70
2023/03/25 04:42:24;;;;;;;15.80;2.53;;;9.50;99.90;;;;;;5005262;28;20260;-70
2023/03/25 04:44:51;;;;;;;11.05;2.10;;;9.60;99.90;;;;;;4997880;28;20125;-70
2023/03/25 04:47:22;;;;;;;15.63;2.67;;;9.40;99.90;;;;;;5019537;28;20227;-69
2023/03/25 04:49:47;;;;;;;15.48;2.75;;;9.40;99.90;;;;;;4999041;28;20460;-69
2023/03/25 04:52:13;;;;;;;16.13;2.73;;;9.50;99.90;;;;;;5005215;28;20252;-70
2023/03/25 04:54:39;;;;;;;15.17;2.90;;;9.40;99.90;;;;;;5006003;28;20827;-70
2023/03/25 04:57:07;;;;;;;16.53;2.50;;;9.40;99.90;;;;;;5012770;28;20045;-70
2023/03/25 04:59:33;;;;;;;16.98;2.80;;;9.40;99.90;;;;;;5018727;28;20042;-69
2023/03/25 05:02:01;;;;;;;17.52;2.80;;;9.40;99.90;;;;;;5001477;28;20171;-70
2023/03/25 05:04:27;;;;;;;22.38;2.85;;;9.40;99.90;;;;;;5001271;28;20231;-70
2023/03/25 05:06:55;;;;;;;17.93;3.33;;;9.40;99.90;;;;;;5002156;28;20104;-70
2023/03/25 05:09:21;;;;;;;15.63;2.78;;;9.30;99.90;;;;;;5000617;28;20128;-69
2023/03/25 05:11:48;;;;;;;14.80;3.17;;;9.30;99.90;;;;;;5021796;28;20044;-71
2023/03/25 05:14:16;;;;;;;14.88;3.22;;;9.40;99.90;;;;;;5009730;28;20505;-70
2023/03/25 05:16:46;;;;;;;14.38;2.35;;;9.30;99.90;;;;;;5000095;28;20045;-70
2023/03/25 05:19:13;;;;;;;21.42;3.40;;;9.30;99.90;;;;;;5007841;28;20230;-70
2023/03/25 05:21:39;;;;;;;18.25;2.95;;;9.30;99.90;;;;;;5004986;28;20083;-70
2023/03/25 05:24:10;;;;;;;18.67;2.58;;;9.30;99.90;;;;;;5005960;28;20656;-70
2023/03/25 05:26:40;;;;;;;11.73;2.78;;;9.30;99.90;;;;;;5018128;28;20275;-69
2023/03/25 05:29:09;;;;;;;19.58;2.83;;;9.30;99.90;;;;;;5004854;28;20622;-69
2023/03/25 05:31:35;;;;;;;18.77;2.53;;;9.30;99.90;;;;;;5001320;28;20072;-69
2023/03/25 05:34:05;;;;;;;19.30;3.97;;;9.20;99.90;;;;;;5001423;28;20041;-70
2023/03/25 05:36:31;;;;;;;15.25;2.50;;;9.20;99.90;;;;;;4994576;28;20053;-70
2023/03/25 05:38:58;;;;;;;21.77;3.67;;;9.20;99.90;;;;;;5002927;28;20088;-69
2023/03/25 05:41:37;;;;;;;20.17;2.67;;;9.20;99.90;;;;;;5001206;28;20061;-69
2023/03/25 05:44:04;;;;;;;13.02;2.85;;;9.30;99.90;;;;;;4999805;28;20033;-70
2023/03/25 05:46:30;;;;;;;14.73;3.90;;;9.20;99.90;;;;;;5017885;28;20042;-69
2023/03/25 05:48:56;;;;;;;17.37;2.73;;;9.20;99.90;;;;;;5017775;28;20524;-70
2023/03/25 05:51:23;;;;;;;22.30;3.13;;;9.30;99.90;;;;;;4998112;28;20504;-70
2023/03/25 05:53:48;;;;;;;;;;;9.30;99.90;;;;;;5017905;28;20376;-70
2023/03/25 05:56:16;;;;;;;16.27;3.20;;;9.30;99.90;;;;;;5014801;28;19955;-70
2023/03/25 05:58:43;;;;;;;14.52;3.03;;;9.30;99.90;;;;;;5020220;28;20042;-70
2023/03/25 06:01:10;;;;;;;16.05;3.05;;;9.30;99.90;;;;;;5001215;28;20471;-69
2023/03/25 06:03:37;;;;;;;13.93;2.60;;;9.30;99.90;;;;;;5001385;28;20526;-69
2023/03/25 06:06:04;;;;;;;14.43;2.80;;;9.30;99.90;;;;;;5005526;28;20513;-69
2023/03/25 06:08:31;;;;;;;22.40;3.80;;;9.30;99.90;;;;;;5001058;28;20114;-70
2023/03/25 06:10:57;;;;;;;20.85;3.65;;;9.30;99.90;;;;;;4997814;28;20057;-70
2023/03/25 06:13:27;;;;;;;20.23;4.38;;;9.20;99.90;;;;;;4999682;28;20399;-69
2023/03/25 06:15:56;;;;;;;21.58;4.03;;;9.20;99.90;;;;;;5003319;28;20052;-70
2023/03/25 06:18:25;;;;;;;26.02;5.00;;;9.20;99.90;;;;;;5017610;28;20064;-69
2023/03/25 06:20:52;;;;;;;21.98;3.78;;;9.20;99.90;;;;;;5005982;28;20049;-70
2023/03/25 06:23:21;;;;;;;14.65;2.50;;;9.20;99.90;;;;;;4998971;28;20088;-70
2023/03/25 06:25:48;;;;;;;12.45;2.83;;;9.20;99.90;;;;;;4993439;28;20061;-70
2023/03/25 06:28:17;;;;;;;17.63;2.50;;;9.20;99.90;;;;;;5024204;28;20037;-69
2023/03/25 06:30:45;;;;;;;10.25;2.50;;;9.20;99.90;;;;;;4998998;28;20360;-70
2023/03/25 06:33:12;;;;;;;16.35;2.75;;;9.20;99.90;;;;;;5002243;28;20034;-69
2023/03/25 06:35:40;;;;;;;20.77;3.25;;;9.20;99.90;;;;;;5018355;28;20063;-70
2023/03/25 06:38:06;;;;;;;19.00;2.45;;;9.30;99.90;;;;;;5011627;28;20256;-70
2023/03/25 06:40:31;;;;;;;11.63;2.33;;;9.30;99.90;;;;;;5002698;28;20120;-70
2023/03/25 06:42:57;;;;;;;18.00;2.50;;;9.30;99.90;;;;;;4998368;28;20299;-69
2023/03/25 06:45:23;;;;;;;14.30;2.33;;;9.30;99.90;;;;;;5000575;28;20150;-69
2023/03/25 06:47:48;;;;;;;14.03;2.80;;;9.40;99.90;;;;;;4997908;28;20100;-70
2023/03/25 06:50:14;;;;;;;13.70;1.97;;;9.50;99.90;;;;;;5013439;28;20126;-69
2023/03/25 06:52:39;;;;;;;11.93;2.60;;;9.40;99.90;;;;;;5001504;28;20049;-69
2023/03/25 06:55:05;;;;;;;15.03;2.53;;;9.40;99.90;;;;;;5007540;28;20258;-69
2023/03/25 06:57:31;;;;;;;12.75;2.47;;;9.30;99.90;;;;;;4999392;28;20374;-71
2023/03/25 06:59:57;;;;;;;14.48;2.00;;;9.20;99.90;;;;;;5002477;28;20510;-70
2023/03/25 07:02:22;;;;;;;19.57;3.27;;;9.20;99.90;;;;;;5017848;28;20095;-70
2023/03/25 07:04:48;;;;;;;11.80;2.67;;;9.20;99.90;;;;;;5010704;28;20237;-69
2023/03/25 07:07:14;;;;;;;21.47;3.17;;;9.20;99.90;;;;;;4995709;28;20124;-69
2023/03/25 07:09:40;;;;;;;14.73;3.28;;;9.20;99.90;;;;;;5002924;28;20041;-70
2023/03/25 07:12:08;;;;;;;15.73;2.73;;;9.30;99.90;;;;;;5018101;28;20072;-70
2023/03/25 07:14:36;;;;;;;12.45;2.45;;;9.30;99.90;;;;;;5016039;28;20046;-70
2023/03/25 07:17:02;;;;;;;15.47;2.83;;;9.20;99.90;;;;;;5027212;23;20103;-85
2023/03/25 07:19:28;;;;;;;9.77;1.60;;;9.30;99.90;;;;;;4995773;28;20045;-85
2023/03/25 07:21:54;;;;;;;12.70;2.67;;;9.30;99.90;;;;;;5010447;28;20812;-85
2023/03/25 07:24:20;;;;;;;9.57;2.20;;;9.20;99.90;;;;;;5011663;28;20353;-85
2023/03/25 07:26:46;;;;;;;11.25;2.42;;;9.10;99.90;;;;;;5010837;28;20136;-85
2023/03/25 07:29:11;;;;;;;6.63;1.83;;;9.10;99.90;;;;;;5024658;28;20437;-85
2023/03/25 07:31:40;;;;;;;8.97;1.50;;;9.00;99.90;;;;;;5009498;28;20129;-84
2023/03/25 07:34:07;;;;;;;8.85;1.90;;;9.00;99.90;;;;;;5010520;28;20061;-85
2023/03/25 07:36:35;;;;;;;12.20;2.65;;;8.90;99.90;;;;;;4994888;28;20042;-85
2023/03/25 07:39:03;;;;;;;8.13;1.95;;;9.00;99.90;;;;;;5027734;28;20094;-84
2023/03/25 07:41:29;;;;;;;16.15;1.90;;;8.90;99.90;;;;;;5009714;28;20046;-84
2023/03/25 07:43:57;;;;;;;11.33;2.03;;;8.90;99.90;;;;;;5010833;28;20057;-84
2023/03/25 07:46:26;;;;;;;10.93;2.17;;;8.90;99.90;;;;;;5009458;28;20341;-85
2023/03/25 07:48:52;;;;;;;9.00;1.70;;;8.90;99.90;;;;;;5008643;28;20044;-84
2023/03/25 07:51:17;;;;;;;7.72;2.00;;;8.80;99.90;;;;;;5010177;28;20464;-85
2023/03/25 07:53:45;;;;;;;18.00;1.80;;;8.80;99.90;;;;;;4993167;28;20045;-84
2023/03/25 07:56:14;;;;;;;11.23;1.92;;;8.80;99.90;;;;;;4994325;28;20038;-85
2023/03/25 07:58:48;;;;;;;8.18;1.48;;;8.80;99.90;;;;;;4990804;28;20076;-85
2023/03/25 08:01:19;;;;;;;14.10;2.30;;;8.80;99.90;;;;;;4990742;28;20102;-85
2023/03/25 08:03:45;;;;;;;15.73;2.90;;;8.80;99.90;;;;;;5009817;28;20140;-85
2023/03/25 08:06:16;;;;;;;11.85;2.60;;;8.80;99.90;;;;;;4996055;28;20109;-87
2023/03/25 08:08:44;;;;;;;13.27;2.67;;;8.90;99.90;;;;;;5012771;28;20108;-84
2023/03/25 08:11:20;;;;;;;16.38;2.47;;;8.90;99.90;;;;;;5006281;28;20037;-85
2023/03/25 08:13:46;;;;;;;7.72;1.63;;;9.00;99.90;;;;;;5004217;28;20044;-85
2023/03/25 08:16:21;;;;;;;10.77;2.77;;;9.00;99.90;;;;;;5011940;28;20041;-84
2023/03/25 08:18:57;;;;;;;9.95;3.30;;;9.00;99.90;;;;;;5010779;28;20443;-84
2023/03/25 08:21:26;;;;;;;18.23;3.35;;;9.00;99.90;;;;;;4998962;28;20088;-84
2023/03/25 08:23:57;;;;;;;19.58;3.85;;;8.90;99.90;;;;;;5009441;28;20095;-85
2023/03/25 08:26:32;;;;;;;9.00;2.67;;;8.90;99.90;;;;;;5012456;28;20057;-86
2023/03/25 08:29:03;;;;;;;15.77;2.58;;;9.10;99.90;;;;;;5010165;28;20056;-84
2023/03/25 08:31:32;;;;;;;13.23;2.45;;;9.10;99.90;;;;;;5013107;28;20504;-84
2023/03/25 08:33:59;;;;;;;8.23;2.05;;;9.10;99.90;;;;;;5023372;28;20052;-84
2023/03/25 08:36:25;;;;;;;11.18;2.95;;;9.10;99.90;;;;;;4993247;28;20579;-83
2023/03/25 08:38:51;;;;;;;12.47;2.63;;;9.10;99.90;;;;;;5009052;28;20056;-84
2023/03/25 08:41:17;;;;;;;13.85;2.63;;;9.10;99.90;;;;;;5028290;28;20287;-85
2023/03/25 08:43:43;;;;;;;14.10;3.40;;;9.10;99.90;;;;;;5026813;28;20420;-84
2023/03/25 08:46:09;;;;;;;14.02;3.42;;;9.10;99.90;;;;;;5007282;28;20030;-85
2023/03/25 08:48:38;;;;;;;16.55;2.42;;;9.20;99.90;;;;;;5025054;28;20049;-84
2023/03/25 08:51:05;;;;;;;16.67;3.08;;;9.30;99.90;;;;;;5010223;28;20041;-85
2023/03/25 08:53:30;;;;;;;14.43;2.75;;;9.40;99.90;;;;;;4994623;28;20287;-84
2023/03/25 08:55:57;;;;;;;12.50;3.97;;;9.50;99.90;;;;;;5025784;28;20061;-85
2023/03/25 08:58:24;;;;;;;14.25;2.97;;;9.60;99.90;;;;;;5026647;28;20652;-85
2023/03/25 09:00:59;;;;;;;17.83;3.45;;;9.70;99.90;;;;;;5024091;28;20042;-85
2023/03/25 09:03:26;;;;;;;18.48;2.90;;;9.80;99.90;;;;;;5025751;28;20069;-85
2023/03/25 09:05:55;;;;;;;11.75;3.35;;;9.90;99.90;;;;;;5042124;28;20049;-85
2023/03/25 09:08:21;;;;;;;10.82;2.60;;;10.00;99.90;;;;;;5011792;28;20422;-85
2023/03/25 09:10:53;;;;;;;11.82;2.78;;;10.10;99.90;;;;;;5012834;28;20280;-85
2023/03/25 09:13:19;;;;;;;13.00;2.25;;;10.10;99.90;;;;;;4994394;28;20045;-84
2023/03/25 09:15:47;;;;;;;11.87;2.57;;;10.20;99.90;;;;;;5009268;28;20471;-84
2023/03/25 09:18:13;;;;;;;11.48;2.17;;;10.30;99.90;;;;;;4993928;28;20056;-84
2023/03/25 09:20:40;;;;;;;12.68;2.53;;;10.30;99.90;;;;;;4997300;28;20041;-84
2023/03/25 09:23:13;;;;;;;;;;;10.30;99.90;;;;;;4998457;28;20049;-85
2023/03/25 09:25:39;;;;;;;11.73;1.85;;;10.30;99.90;;;;;;4995920;28;19917;-85
2023/03/25 09:28:05;;;;;;;14.70;1.88;;;10.40;99.90;;;;;;5015669;28;20120;-85
2023/03/25 09:30:31;;;;;;;9.75;1.48;;;10.50;99.90;;;;;;5000144;28;20498;-85
2023/03/25 09:32:59;;;;;;;12.73;1.50;;;10.40;99.90;;;;;;5014092;28;20091;-85
2023/03/25 09:35:28;;;;;;;8.40;1.80;;;10.40;99.90;;;;;;5010060;28;20042;-84
2023/03/25 09:37:54;;;;;;;12.00;1.55;;;10.30;99.90;;;;;;5008371;28;20095;-85
2023/03/25 09:40:21;;;;;;;6.83;2.17;;;10.30;99.90;;;;;;5027419;28;20033;-84
2023/03/25 09:43:07;;;;;;;12.30;2.15;;;10.20;99.90;;;;;;5001208;28;20137;-84
2023/03/25 09:45:38;;;;;;;14.75;2.00;;;10.20;99.90;;;;;;4996238;28;20033;-84
2023/03/25 09:48:31;;;;;;;12.90;2.78;;;10.10;99.90;;;;;;5012611;28;20137;-84
2023/03/25 09:51:04;;;;;;;13.23;2.42;;;10.10;99.90;;;;;;5030560;28;20053;-83
2023/03/25 09:53:39;;;;;;;9.63;2.22;;;10.10;99.90;;;;;;5026821;28;20519;-82
2023/03/25 09:56:10;;;;;;;6.93;1.52;;;10.20;99.90;;;;;;5011902;28;20119;-84
2023/03/25 09:58:47;;;;;;;15.85;4.00;;;10.20;99.90;;;;;;4994049;28;20041;-84
2023/03/25 10:01:41;;;;;;;13.02;2.72;;;10.20;99.90;;;;;;5008086;28;20045;-84
2023/03/25 10:04:31;;;;;;;10.55;2.55;;;10.20;99.90;;;;;;5026326;28;20033;-85
2023/03/25 10:07:35;;;;;;;21.67;2.55;;;10.30;99.90;;;;;;4995884;28;20045;-84
2023/03/25 10:10:29;;;;;;;14.00;2.17;;;10.40;99.90;;;;;;4994108;28;20042;-85
2023/03/25 10:13:21;;;;;;;11.07;1.80;;;10.40;99.90;;;;;;5012362;28;20045;-84
2023/03/25 10:15:50;;;;;;;16.75;2.40;;;10.50;99.90;;;;;;5008715;28;20038;-83
2023/03/25 10:18:34;;;;;;;8.95;2.08;;;10.50;99.90;;;;;;5017191;28;20108;-84
2023/03/25 10:21:10;;;;;;;10.85;2.42;;;10.50;99.90;;;;;;5023721;28;20520;-84
2023/03/25 10:23:42;;;;;;;11.27;2.50;;;10.60;99.90;;;;;;5015275;28;20405;-82
2023/03/25 10:26:30;;;;;;;11.50;2.05;;;10.60;99.90;;;;;;5011593;28;20464;-84
2023/03/25 10:29:02;;;;;;;13.38;2.10;;;10.60;99.90;;;;;;5036455;28;20440;-83
2023/03/25 10:31:34;;;;;;;10.43;1.92;;;10.60;99.90;;;;;;5013058;28;20154;-84
2023/03/25 10:34:13;;;;;;;13.80;2.88;;;10.70;99.90;;;;;;5012226;28;20155;-80
2023/03/25 10:36:48;;;;;;;9.85;1.70;;;10.70;99.90;;;;;;5024260;28;20472;-85
2023/03/25 10:39:18;;;;;;;12.32;2.33;;;10.80;99.90;;;;;;5009729;28;20487;-84
2023/03/25 10:41:50;;;;;;;16.52;3.30;;;10.80;99.90;;;;;;5009692;28;20456;-84
2023/03/25 10:44:21;;;;;;;16.15;1.75;;;10.80;99.90;;;;;;5026257;28;20041;-84
2023/03/25 10:47:11;;;;;;;12.40;1.80;;;10.90;99.90;;;;;;5015484;28;20065;-85
2023/03/25 10:49:40;;;;;;;9.50;1.77;;;11.00;99.90;;;;;;5024450;28;20129;-84
2023/03/25 10:52:06;;;;;;;9.70;1.65;;;11.10;99.90;;;;;;5006089;28;20520;-84
2023/03/25 10:54:43;;;;;;;15.40;2.28;;;11.10;99.90;;;;;;5013169;28;20048;-84
2023/03/25 10:57:22;;;;;;;10.33;2.87;;;11.20;99.90;;;;;;5016046;28;20052;-83
2023/03/25 11:00:23;;;;;;;14.02;3.92;;;11.30;99.90;;;;;;5010692;28;20361;-85
2023/03/25 11:02:50;;;;;;;15.65;3.47;;;11.50;99.90;;;;;;4940206;28;20580;-83
2023/03/25 11:05:20;;;;;;;;;;;11.50;99.90;;;;;;5027491;28;20045;-82
2023/03/25 11:07:55;;;;;;;9.07;2.05;;;11.70;99.90;;;;;;5007083;28;19921;-83
2023/03/25 11:10:58;;;;;;;;;;;;;;;;;;;;;
2023/03/25 11:16:41;;;;;;;5.78;1.75;;;11.80;99.90;;;;;;4953191;22;20306;-73
2023/03/25 11:19:16;;;;;;;7.53;1.88;;;11.70;99.90;;;;;;4958195;28;20133;-75
2023/03/25 11:21:47;;;;;;;10.88;1.65;;;11.60;99.90;;;;;;4964045;28;20046;-73
2023/03/25 11:24:16;;;;;;;12.95;2.20;;;11.50;99.90;;;;;;4972234;28;20626;-74
2023/03/25 11:26:45;;;;;;;8.70;1.90;;;11.50;99.90;;;;;;4952541;28;20304;-74
2023/03/25 11:29:17;;;;;;;10.07;1.73;;;11.50;99.90;;;;;;4961462;28;20050;-75
2023/03/25 11:31:43;;;;;;;6.28;1.58;;;11.50;99.90;;;;;;4955502;28;20137;-74
2023/03/25 11:34:11;;;;;;;10.02;1.50;;;11.60;99.90;;;;;;4952643;28;20437;-74
2023/03/25 11:36:51;;;;;;;9.13;1.50;;;11.50;99.90;;;;;;4949086;28;20133;-75
2023/03/25 11:39:38;;;;;;;7.72;1.33;;;11.50;99.90;;;;;;4957724;28;20051;-74
2023/03/25 11:42:16;;;;;;;10.33;1.93;;;11.70;99.90;;;;;;4973316;28;20046;-74
2023/03/25 11:44:49;;;;;;;13.00;2.25;;;11.70;99.90;;;;;;4974171;28;20050;-76
2023/03/25 11:47:36;;;;;;;8.10;1.63;;;11.80;99.90;;;;;;4975414;28;20125;-73
2023/03/25 11:50:03;;;;;;;9.50;2.70;;;11.90;99.90;;;;;;4958464;28;20760;-73
2023/03/25 11:52:43;;;;;;;8.00;2.05;;;12.00;99.90;;;;;;4980724;28;20046;-73
2023/03/25 11:55:36;;;;;;;12.23;1.92;;;12.20;99.90;;;;;;4957402;28;20103;-73
2023/03/25 11:58:03;;;;;;;9.68;2.55;;;12.20;99.90;;;;;;4964451;28;20523;-74
2023/03/25 12:00:40;;;;;;;8.65;2.35;;;12.20;99.90;;;;;;4956921;28;20081;-74
2023/03/25 12:03:20;;;;;;;7.60;2.47;;;12.30;99.90;;;;;;4953827;28;20038;-73
2023/03/25 12:05:58;;;;;;;9.52;1.75;;;12.30;99.90;;;;;;4955911;28;20599;-73
2023/03/25 12:08:23;;;;;;;14.70;2.78;;;12.20;99.90;;;;;;4972530;28;20054;-74
2023/03/25 12:11:03;;;;;;;12.23;2.13;;;12.10;99.90;;;;;;4977662;28;20050;-75
2023/03/25 12:13:50;;;;;;;10.85;1.98;;;12.20;99.90;;;;;;4958485;28;20042;-73
2023/03/25 12:17:03;;;;;;;9.30;1.52;;;12.30;99.90;;;;;;4972413;28;20077;-75
2023/03/25 12:19:51;;;;;;;8.35;1.30;;;12.40;99.90;;;;;;4923086;28;20153;-74
2023/03/25 12:22:37;;;;;;;;;;;12.30;99.90;;;;;;4957285;28;20475;-72
2023/03/25 12:25:25;;;;;;;10.00;1.83;;;12.20;99.90;;;;;;4953331;28;20356;-72
2023/03/25 12:28:28;;;;;;;7.65;1.63;;;12.30;99.90;;;;;;4969675;28;20050;-73
2023/03/25 12:31:32;;;;;;;7.75;1.35;;;12.20;99.90;;;;;;4956271;28;20070;-75
2023/03/25 12:34:12;;;;;;;9.98;1.50;;;12.20;99.90;;;;;;4921323;28;20046;-72
2023/03/25 12:36:56;;;;;;;5.95;2.10;;;12.20;99.90;;;;;;4970214;28;20513;-72
2023/03/25 12:39:40;;;;;;;9.18;1.40;;;12.20;99.90;;;;;;4959138;28;20366;-72
2023/03/25 12:42:21;;;;;;;7.88;1.92;;;12.10;99.90;;;;;;4973155;28;20074;-73
2023/03/25 12:45:03;;;;;;;12.50;1.80;;;12.10;99.90;;;;;;4967119;28;20392;-75
2023/03/25 12:47:41;;;;;;;12.45;2.75;;;12.00;99.90;;;;;;4954803;28;20054;-72
2023/03/25 12:50:33;;;;;;;9.65;1.23;;;12.00;99.90;;;;;;4951845;28;20172;-73
2023/03/25 12:53:03;;;;;;;8.30;1.77;;;12.00;99.90;;;;;;4967990;28;20550;-72
2023/03/25 12:55:54;;;;;;;9.52;1.90;;;12.00;99.90;;;;;;4967744;28;20039;-73
2023/03/25 12:58:25;;;;;;;7.20;1.05;;;11.90;99.90;;;;;;4961630;28;20121;-73
2023/03/25 13:01:36;;;;;;;11.63;1.55;;;11.80;99.90;;;;;;4969282;28;20128;-73
2023/03/25 13:04:20;;;;;;;11.73;2.10;;;11.80;99.90;;;;;;4963200;28;20046;-74
2023/03/25 13:07:13;;;;;;;4.45;1.30;;;11.70;99.90;;;;;;4963002;28;20512;-73
2023/03/25 13:10:11;;;;;;;7.65;1.30;;;11.70;99.90;;;;;;4970836;28;20530;-75
2023/03/25 13:12:46;;;;;;;6.13;1.17;;;11.50;99.90;;;;;;4978536;28;20035;-74
2023/03/25 13:15:25;;;;;;;6.00;1.17;;;11.40;99.90;;;;;;4957466;28;20157;-73
2023/03/25 13:17:55;;;;;;;7.35;1.17;;;11.40;99.90;;;;;;4968783;28;20265;-74